sensor_id;sensor_type;location;lat;lon;timestamp;temperature;humidity
14875;DHT22;7529;48.170;17.138;2022-10-16T00:02:33;13.10;99.90
14875;DHT22;7529;48.170;17.138;2022-10-16T00:06:44;13.00;99.90
14875;DHT22;7529;48.170;17.138;2022-10-16T00:11:07;12.80;99.90
14875;DHT22;7529;48.170;17.138;2022-10-16T00:15:20;12.70;99.90
14875;DHT22;7529;48.170;17.138;2022-10-16T00:19:31;12.70;99.90
14875;DHT22;7529;48.170;17.138;2022-10-16T00:23:43;12.60;99.90
14875;DHT22;7529;48.170;17.138;2022-10-16T00:27:54;12.50;99.90
14875;DHT22;7529;48.170;17.138;2022-10-16T00:32:05;12.50;99.90
14875;DHT22;7529;48.170;17.138;2022-10-16T00:36:19;12.50;99.90
14875;DHT22;7529;48.170;17.138;2022-10-16T00:40:32;12.40;99.90
14875;DHT22;7529;48.170;17.138;2022-10-16T00:49:14;12.30;99.90
14875;DHT22;7529;48.170;17.138;2022-10-16T00:53:27;12.20;99.90
14875;DHT22;7529;48.170;17.138;2022-10-16T00:57:39;12.20;99.90
14875;DHT22;7529;48.170;17.138;2022-10-16T01:01:51;12.10;99.90
14875;DHT22;7529;48.170;17.138;2022-10-16T01:11:06;12.00;99.90
14875;DHT22;7529;48.170;17.138;2022-10-16T01:15:47;11.90;99.90
14875;DHT22;7529;48.170;17.138;2022-10-16T01:24:44;11.80;99.90
14875;DHT22;7529;48.170;17.138;2022-10-16T01:33:43;11.70;99.90
14875;DHT22;7529;48.170;17.138;2022-10-16T01:42:22;11.60;99.90
14875;DHT22;7529;48.170;17.138;2022-10-16T01:46:37;11.50;99.90
14875;DHT22;7529;48.170;17.138;2022-10-16T01:51:05;11.50;99.90
14875;DHT22;7529;48.170;17.138;2022-10-16T01:55:22;11.50;99.90
14875;DHT22;7529;48.170;17.138;2022-10-16T01:59:42;11.50;99.90
14875;DHT22;7529;48.170;17.138;2022-10-16T02:03:57;11.40;99.90
14875;DHT22;7529;48.170;17.138;2022-10-16T02:08:12;11.30;99.90
14875;DHT22;7529;48.170;17.138;2022-10-16T02:12:31;11.30;99.90
14875;DHT22;7529;48.170;17.138;2022-10-16T02:16:45;11.30;99.90
14875;DHT22;7529;48.170;17.138;2022-10-16T02:25:40;11.40;99.90
14875;DHT22;7529;48.170;17.138;2022-10-16T02:29:56;11.50;99.90
14875;DHT22;7529;48.170;17.138;2022-10-16T02:34:12;11.70;99.90
14875;DHT22;7529;48.170;17.138;2022-10-16T02:38:24;11.80;99.90
14875;DHT22;7529;48.170;17.138;2022-10-16T02:42:39;11.80;99.90
14875;DHT22;7529;48.170;17.138;2022-10-16T02:46:50;11.80;99.90
14875;DHT22;7529;48.170;17.138;2022-10-16T02:51:02;11.90;99.90
14875;DHT22;7529;48.170;17.138;2022-10-16T02:55:13;12.00;99.90
14875;DHT22;7529;48.170;17.138;2022-10-16T02:59:24;12.00;99.90
14875;DHT22;7529;48.170;17.138;2022-10-16T03:03:35;12.10;99.90
14875;DHT22;7529;48.170;17.138;2022-10-16T03:07:46;12.20;99.90
14875;DHT22;7529;48.170;17.138;2022-10-16T03:11:58;12.20;99.90
14875;DHT22;7529;48.170;17.138;2022-10-16T03:16:09;12.20;99.90
14875;DHT22;7529;48.170;17.138;2022-10-16T03:20:20;12.30;99.90
14875;DHT22;7529;48.170;17.138;2022-10-16T03:24:31;12.30;99.90
14875;DHT22;7529;48.170;17.138;2022-10-16T03:28:42;12.30;99.90
14875;DHT22;7529;48.170;17.138;2022-10-16T03:32:53;12.30;99.90
14875;DHT22;7529;48.170;17.138;2022-10-16T03:37:04;12.30;99.90
14875;DHT22;7529;48.170;17.138;2022-10-16T03:41:16;12.30;99.90
14875;DHT22;7529;48.170;17.138;2022-10-16T03:45:27;12.30;99.90
14875;DHT22;7529;48.170;17.138;2022-10-16T03:49:38;12.30;99.90
14875;DHT22;7529;48.170;17.138;2022-10-16T03:53:49;12.30;99.90
14875;DHT22;7529;48.170;17.138;2022-10-16T03:58:00;12.20;99.90
14875;DHT22;7529;48.170;17.138;2022-10-16T04:02:12;12.10;99.90
14875;DHT22;7529;48.170;17.138;2022-10-16T04:06:23;12.10;99.90
14875;DHT22;7529;48.170;17.138;2022-10-16T04:10:34;12.10;99.90
14875;DHT22;7529;48.170;17.138;2022-10-16T04:14:45;12.10;99.90
14875;DHT22;7529;48.170;17.138;2022-10-16T04:18:56;12.20;99.90
14875;DHT22;7529;48.170;17.138;2022-10-16T04:23:08;12.20;99.90
14875;DHT22;7529;48.170;17.138;2022-10-16T04:27:19;12.20;99.90
14875;DHT22;7529;48.170;17.138;2022-10-16T04:31:30;12.30;99.90
14875;DHT22;7529;48.170;17.138;2022-10-16T04:35:41;12.30;99.90
14875;DHT22;7529;48.170;17.138;2022-10-16T04:39:53;12.40;99.90
14875;DHT22;7529;48.170;17.138;2022-10-16T04:44:04;12.40;99.90
14875;DHT22;7529;48.170;17.138;2022-10-16T04:48:15;12.30;99.90
14875;DHT22;7529;48.170;17.138;2022-10-16T04:52:26;12.30;99.90
14875;DHT22;7529;48.170;17.138;2022-10-16T04:56:38;12.20;99.90
14875;DHT22;7529;48.170;17.138;2022-10-16T05:00:57;12.10;99.90
14875;DHT22;7529;48.170;17.138;2022-10-16T05:05:08;11.90;99.90
14875;DHT22;7529;48.170;17.138;2022-10-16T05:09:19;11.90;99.90
14875;DHT22;7529;48.170;17.138;2022-10-16T05:13:31;11.90;99.90
14875;DHT22;7529;48.170;17.138;2022-10-16T05:17:42;11.90;99.90
14875;DHT22;7529;48.170;17.138;2022-10-16T05:21:53;11.90;99.90
14875;DHT22;7529;48.170;17.138;2022-10-16T05:26:04;11.90;99.90
14875;DHT22;7529;48.170;17.138;2022-10-16T05:30:17;11.90;99.90
14875;DHT22;7529;48.170;17.138;2022-10-16T05:34:28;11.90;99.90
14875;DHT22;7529;48.170;17.138;2022-10-16T05:38:39;12.00;99.90
14875;DHT22;7529;48.170;17.138;2022-10-16T05:42:55;12.10;99.90
14875;DHT22;7529;48.170;17.138;2022-10-16T05:47:06;12.20;99.90
14875;DHT22;7529;48.170;17.138;2022-10-16T05:51:17;12.20;99.90
14875;DHT22;7529;48.170;17.138;2022-10-16T05:55:28;12.20;99.90
14875;DHT22;7529;48.170;17.138;2022-10-16T05:59:39;12.30;99.90
14875;DHT22;7529;48.170;17.138;2022-10-16T06:03:51;12.40;99.90
14875;DHT22;7529;48.170;17.138;2022-10-16T06:08:03;12.40;99.90
14875;DHT22;7529;48.170;17.138;2022-10-16T06:12:14;12.50;99.90
14875;DHT22;7529;48.170;17.138;2022-10-16T06:16:26;12.70;99.90
14875;DHT22;7529;48.170;17.138;2022-10-16T06:20:37;13.10;99.90
14875;DHT22;7529;48.170;17.138;2022-10-16T06:24:48;13.40;99.90
14875;DHT22;7529;48.170;17.138;2022-10-16T06:29:00;13.70;99.90
14875;DHT22;7529;48.170;17.138;2022-10-16T06:33:12;14.00;99.90
14875;DHT22;7529;48.170;17.138;2022-10-16T06:37:23;14.10;99.90
14875;DHT22;7529;48.170;17.138;2022-10-16T06:41:36;14.30;99.90
14875;DHT22;7529;48.170;17.138;2022-10-16T06:46:00;14.50;99.90
14875;DHT22;7529;48.170;17.138;2022-10-16T06:50:12;14.50;99.90
14875;DHT22;7529;48.170;17.138;2022-10-16T06:54:23;14.30;99.90
14875;DHT22;7529;48.170;17.138;2022-10-16T06:58:34;14.20;99.90
14875;DHT22;7529;48.170;17.138;2022-10-16T07:02:45;14.50;99.90
14875;DHT22;7529;48.170;17.138;2022-10-16T07:06:56;16.30;99.90
14875;DHT22;7529;48.170;17.138;2022-10-16T07:11:10;18.30;99.90
14875;DHT22;7529;48.170;17.138;2022-10-16T07:15:24;18.70;99.90
14875;DHT22;7529;48.170;17.138;2022-10-16T07:19:35;20.10;99.90
14875;DHT22;7529;48.170;17.138;2022-10-16T07:23:52;21.60;99.90
14875;DHT22;7529;48.170;17.138;2022-10-16T07:28:03;22.90;99.90
14875;DHT22;7529;48.170;17.138;2022-10-16T07:32:15;23.50;99.90
14875;DHT22;7529;48.170;17.138;2022-10-16T07:36:26;24.10;96.90
14875;DHT22;7529;48.170;17.138;2022-10-16T07:40:37;25.00;94.90
14875;DHT22;7529;48.170;17.138;2022-10-16T07:44:49;25.70;92.20
14875;DHT22;7529;48.170;17.138;2022-10-16T07:49:00;27.40;83.40
14875;DHT22;7529;48.170;17.138;2022-10-16T07:53:11;29.10;75.40
14875;DHT22;7529;48.170;17.138;2022-10-16T07:57:23;30.40;67.20
14875;DHT22;7529;48.170;17.138;2022-10-16T08:05:45;31.30;63.10
14875;DHT22;7529;48.170;17.138;2022-10-16T08:09:56;32.40;58.40
14875;DHT22;7529;48.170;17.138;2022-10-16T08:39:20;32.90;57.10
14875;DHT22;7529;48.170;17.138;2022-10-16T08:48:35;29.10;47.40
14875;DHT22;7529;48.170;17.138;2022-10-16T08:57:21;26.30;49.40
14875;DHT22;7529;48.170;17.138;2022-10-16T09:01:40;28.10;50.70
14875;DHT22;7529;48.170;17.138;2022-10-16T09:10:28;32.00;48.50
14875;DHT22;7529;48.170;17.138;2022-10-16T11:18:21;40.60;30.30
14875;DHT22;7529;48.170;17.138;2022-10-16T11:22:39;39.00;31.00
14875;DHT22;7529;48.170;17.138;2022-10-16T14:44:43;36.30;32.20
14875;DHT22;7529;48.170;17.138;2022-10-16T14:49:12;26.10;42.70
14875;DHT22;7529;48.170;17.138;2022-10-16T14:53:27;25.60;43.00
14875;DHT22;7529;48.170;17.138;2022-10-16T14:57:39;26.00;42.80
14875;DHT22;7529;48.170;17.138;2022-10-16T15:01:50;26.20;42.90
14875;DHT22;7529;48.170;17.138;2022-10-16T15:06:01;26.10;43.00
14875;DHT22;7529;48.170;17.138;2022-10-16T15:10:14;26.30;43.40
14875;DHT22;7529;48.170;17.138;2022-10-16T15:14:26;26.50;43.40
14875;DHT22;7529;48.170;17.138;2022-10-16T15:18:37;26.40;43.40
14875;DHT22;7529;48.170;17.138;2022-10-16T15:22:48;26.80;43.30
14875;DHT22;7529;48.170;17.138;2022-10-16T15:26:59;25.90;43.50
14875;DHT22;7529;48.170;17.138;2022-10-16T15:31:10;25.00;44.10
14875;DHT22;7529;48.170;17.138;2022-10-16T15:35:22;24.20;44.90
14875;DHT22;7529;48.170;17.138;2022-10-16T15:39:33;23.70;45.60
14875;DHT22;7529;48.170;17.138;2022-10-16T15:43:47;23.30;46.50
14875;DHT22;7529;48.170;17.138;2022-10-16T15:48:00;22.90;46.70
14875;DHT22;7529;48.170;17.138;2022-10-16T15:52:11;22.50;47.10
14875;DHT22;7529;48.170;17.138;2022-10-16T15:56:23;22.20;47.60
14875;DHT22;7529;48.170;17.138;2022-10-16T16:00:36;21.90;48.00
14875;DHT22;7529;48.170;17.138;2022-10-16T16:04:47;21.50;48.20
14875;DHT22;7529;48.170;17.138;2022-10-16T16:08:58;21.20;48.50
14875;DHT22;7529;48.170;17.138;2022-10-16T16:13:10;20.90;48.80
14875;DHT22;7529;48.170;17.138;2022-10-16T16:17:22;20.70;49.20
14875;DHT22;7529;48.170;17.138;2022-10-16T16:21:34;20.50;49.50
14875;DHT22;7529;48.170;17.138;2022-10-16T16:25:53;20.20;49.90
14875;DHT22;7529;48.170;17.138;2022-10-16T16:30:13;20.00;50.20
14875;DHT22;7529;48.170;17.138;2022-10-16T16:34:28;19.80;50.50
14875;DHT22;7529;48.170;17.138;2022-10-16T16:38:39;19.60;50.90
14875;DHT22;7529;48.170;17.138;2022-10-16T16:42:50;19.50;51.20
14875;DHT22;7529;48.170;17.138;2022-10-16T16:47:02;19.40;51.40
14875;DHT22;7529;48.170;17.138;2022-10-16T16:51:16;19.30;51.60
14875;DHT22;7529;48.170;17.138;2022-10-16T16:55:28;19.20;51.90
14875;DHT22;7529;48.170;17.138;2022-10-16T16:59:40;19.10;51.90
14875;DHT22;7529;48.170;17.138;2022-10-16T17:03:53;19.00;52.20
14875;DHT22;7529;48.170;17.138;2022-10-16T17:08:08;18.90;52.30
14875;DHT22;7529;48.170;17.138;2022-10-16T17:12:19;18.80;52.20
14875;DHT22;7529;48.170;17.138;2022-10-16T17:16:33;18.80;52.70
14875;DHT22;7529;48.170;17.138;2022-10-16T17:20:46;18.60;52.90
14875;DHT22;7529;48.170;17.138;2022-10-16T17:24:57;18.50;53.00
14875;DHT22;7529;48.170;17.138;2022-10-16T17:29:11;18.50;53.20
14875;DHT22;7529;48.170;17.138;2022-10-16T17:33:23;18.40;53.50
14875;DHT22;7529;48.170;17.138;2022-10-16T17:37:35;18.40;53.60
14875;DHT22;7529;48.170;17.138;2022-10-16T17:41:48;18.20;53.80
14875;DHT22;7529;48.170;17.138;2022-10-16T17:46:01;18.20;54.00
14875;DHT22;7529;48.170;17.138;2022-10-16T17:50:13;18.10;54.20
14875;DHT22;7529;48.170;17.138;2022-10-16T17:54:25;18.00;54.40
14875;DHT22;7529;48.170;17.138;2022-10-16T17:58:36;17.90;54.50
14875;DHT22;7529;48.170;17.138;2022-10-16T18:02:49;17.90;54.70
14875;DHT22;7529;48.170;17.138;2022-10-16T18:07:00;17.80;54.80
14875;DHT22;7529;48.170;17.138;2022-10-16T18:11:12;17.80;55.00
14875;DHT22;7529;48.170;17.138;2022-10-16T18:15:23;17.70;55.10
14875;DHT22;7529;48.170;17.138;2022-10-16T18:19:34;17.70;55.30
14875;DHT22;7529;48.170;17.138;2022-10-16T18:23:46;17.60;55.50
14875;DHT22;7529;48.170;17.138;2022-10-16T18:27:57;17.40;55.70
14875;DHT22;7529;48.170;17.138;2022-10-16T18:32:09;17.30;55.90
14875;DHT22;7529;48.170;17.138;2022-10-16T18:36:23;17.10;56.10
14875;DHT22;7529;48.170;17.138;2022-10-16T18:40:36;16.90;56.40
14875;DHT22;7529;48.170;17.138;2022-10-16T18:44:47;16.70;56.60
14875;DHT22;7529;48.170;17.138;2022-10-16T18:48:59;16.60;57.00
14875;DHT22;7529;48.170;17.138;2022-10-16T18:53:11;16.50;57.20
14875;DHT22;7529;48.170;17.138;2022-10-16T18:57:22;16.30;57.40
14875;DHT22;7529;48.170;17.138;2022-10-16T19:01:35;16.10;57.70
14875;DHT22;7529;48.170;17.138;2022-10-16T19:05:48;16.00;58.00
14875;DHT22;7529;48.170;17.138;2022-10-16T19:09:59;15.90;58.20
14875;DHT22;7529;48.170;17.138;2022-10-16T19:14:11;15.80;58.40
14875;DHT22;7529;48.170;17.138;2022-10-16T19:18:23;15.70;58.80
14875;DHT22;7529;48.170;17.138;2022-10-16T19:22:34;15.50;59.00
14875;DHT22;7529;48.170;17.138;2022-10-16T19:27:04;15.40;59.20
14875;DHT22;7529;48.170;17.138;2022-10-16T19:31:19;15.30;59.50
14875;DHT22;7529;48.170;17.138;2022-10-16T19:35:32;15.20;59.70
14875;DHT22;7529;48.170;17.138;2022-10-16T19:39:44;15.20;59.80
14875;DHT22;7529;48.170;17.138;2022-10-16T19:44:00;15.10;60.10
14875;DHT22;7529;48.170;17.138;2022-10-16T19:48:12;15.10;60.60
14875;DHT22;7529;48.170;17.138;2022-10-16T19:52:24;15.00;61.00
14875;DHT22;7529;48.170;17.138;2022-10-16T19:56:35;14.90;61.60
